sensor_id;sensor_type;location;lat;lon;timestamp;P1;durP1;ratioP1;P2;durP2;ratioP2
20179;SDS011;10249;48.900;9.090;2023-05-27T00:00:40;12.97;;;12.47;;
20179;SDS011;10249;48.900;9.090;2023-05-27T00:03:07;12.97;;;12.47;;
20179;SDS011;10249;48.900;9.090;2023-05-27T00:05:35;13.10;;;12.60;;
20179;SDS011;10249;48.900;9.090;2023-05-27T00:08:02;12.97;;;12.47;;
20179;SDS011;10249;48.900;9.090;2023-05-27T00:10:29;12.80;;;12.30;;
20179;SDS011;10249;48.900;9.090;2023-05-27T00:12:56;12.47;;;12.07;;
20179;SDS011;10249;48.900;9.090;2023-05-27T00:15:24;12.30;;;11.90;;
20179;SDS011;10249;48.900;9.090;2023-05-27T00:17:52;12.10;;;11.70;;
20179;SDS011;10249;48.900;9.090;2023-05-27T00:20:19;12.07;;;11.67;;
20179;SDS011;10249;48.900;9.090;2023-05-27T00:22:46;11.80;;;11.40;;
20179;SDS011;10249;48.900;9.090;2023-05-27T00:25:14;11.80;;;11.40;;
20179;SDS011;10249;48.900;9.090;2023-05-27T00:27:45;11.77;;;11.37;;
20179;SDS011;10249;48.900;9.090;2023-05-27T00:30:12;11.53;;;11.13;;
20179;SDS011;10249;48.900;9.090;2023-05-27T00:32:41;11.80;;;11.40;;
20179;SDS011;10249;48.900;9.090;2023-05-27T00:35:08;12.20;;;11.80;;
20179;SDS011;10249;48.900;9.090;2023-05-27T00:37:35;12.37;;;11.97;;
20179;SDS011;10249;48.900;9.090;2023-05-27T00:40:02;12.30;;;11.90;;
20179;SDS011;10249;48.900;9.090;2023-05-27T00:42:32;12.50;;;12.00;;
20179;SDS011;10249;48.900;9.090;2023-05-27T00:44:59;12.67;;;12.17;;
20179;SDS011;10249;48.900;9.090;2023-05-27T00:47:26;12.60;;;12.10;;
20179;SDS011;10249;48.900;9.090;2023-05-27T00:49:57;13.03;;;12.53;;
20179;SDS011;10249;48.900;9.090;2023-05-27T00:52:24;12.80;;;12.30;;
20179;SDS011;10249;48.900;9.090;2023-05-27T00:54:52;12.97;;;12.47;;
20179;SDS011;10249;48.900;9.090;2023-05-27T00:57:21;12.87;;;12.37;;
20179;SDS011;10249;48.900;9.090;2023-05-27T00:59:48;12.90;;;12.40;;
20179;SDS011;10249;48.900;9.090;2023-05-27T01:02:15;12.67;;;12.17;;
20179;SDS011;10249;48.900;9.090;2023-05-27T01:04:42;12.90;;;12.40;;
20179;SDS011;10249;48.900;9.090;2023-05-27T01:07:14;12.90;;;12.40;;
20179;SDS011;10249;48.900;9.090;2023-05-27T01:09:44;12.80;;;12.30;;
20179;SDS011;10249;48.900;9.090;2023-05-27T01:12:14;12.87;;;12.37;;
20179;SDS011;10249;48.900;9.090;2023-05-27T01:14:43;12.97;;;12.47;;
20179;SDS011;10249;48.900;9.090;2023-05-27T01:17:11;12.90;;;12.40;;
20179;SDS011;10249;48.900;9.090;2023-05-27T01:19:41;12.90;;;12.40;;
20179;SDS011;10249;48.900;9.090;2023-05-27T01:22:11;12.90;;;12.40;;
20179;SDS011;10249;48.900;9.090;2023-05-27T01:24:39;12.80;;;12.30;;
20179;SDS011;10249;48.900;9.090;2023-05-27T01:27:07;12.33;;;11.93;;
20179;SDS011;10249;48.900;9.090;2023-05-27T01:29:37;12.60;;;12.10;;
20179;SDS011;10249;48.900;9.090;2023-05-27T01:32:06;12.53;;;12.10;;
20179;SDS011;10249;48.900;9.090;2023-05-27T01:34:36;12.70;;;12.20;;
20179;SDS011;10249;48.900;9.090;2023-05-27T01:37:07;12.10;;;11.70;;
20179;SDS011;10249;48.900;9.090;2023-05-27T01:39:35;12.20;;;11.80;;
20179;SDS011;10249;48.900;9.090;2023-05-27T01:42:05;12.37;;;11.97;;
20179;SDS011;10249;48.900;9.090;2023-05-27T01:44:33;12.70;;;12.20;;
20179;SDS011;10249;48.900;9.090;2023-05-27T01:47:00;12.17;;;11.77;;
20179;SDS011;10249;48.900;9.090;2023-05-27T01:49:27;12.03;;;11.63;;
20179;SDS011;10249;48.900;9.090;2023-05-27T01:51:55;12.20;;;11.80;;
20179;SDS011;10249;48.900;9.090;2023-05-27T01:54:22;12.20;;;11.80;;
20179;SDS011;10249;48.900;9.090;2023-05-27T01:56:49;12.00;;;11.60;;
20179;SDS011;10249;48.900;9.090;2023-05-27T01:59:17;12.10;;;11.70;;
20179;SDS011;10249;48.900;9.090;2023-05-27T02:01:44;12.10;;;11.70;;
20179;SDS011;10249;48.900;9.090;2023-05-27T02:04:11;12.00;;;11.60;;
20179;SDS011;10249;48.900;9.090;2023-05-27T02:06:38;12.17;;;11.77;;
20179;SDS011;10249;48.900;9.090;2023-05-27T02:09:06;12.00;;;11.60;;
20179;SDS011;10249;48.900;9.090;2023-05-27T02:11:36;12.00;;;11.60;;
20179;SDS011;10249;48.900;9.090;2023-05-27T02:14:03;12.00;;;11.60;;
20179;SDS011;10249;48.900;9.090;2023-05-27T02:16:31;11.70;;;11.30;;
20179;SDS011;10249;48.900;9.090;2023-05-27T02:18:58;12.10;;;11.70;;
20179;SDS011;10249;48.900;9.090;2023-05-27T02:21:26;11.97;;;11.57;;
20179;SDS011;10249;48.900;9.090;2023-05-27T02:23:53;11.60;;;11.20;;
20179;SDS011;10249;48.900;9.090;2023-05-27T02:26:20;11.57;;;11.17;;
20179;SDS011;10249;48.900;9.090;2023-05-27T02:28:47;11.70;;;11.30;;
20179;SDS011;10249;48.900;9.090;2023-05-27T02:31:15;11.80;;;11.40;;
20179;SDS011;10249;48.900;9.090;2023-05-27T02:33:43;11.63;;;11.23;;
20179;SDS011;10249;48.900;9.090;2023-05-27T02:36:10;11.10;;;10.70;;
20179;SDS011;10249;48.900;9.090;2023-05-27T02:38:37;11.70;;;11.30;;
20179;SDS011;10249;48.900;9.090;2023-05-27T02:41:04;11.53;;;11.13;;
20179;SDS011;10249;48.900;9.090;2023-05-27T02:43:31;11.40;;;11.00;;
20179;SDS011;10249;48.900;9.090;2023-05-27T02:45:59;11.50;;;11.10;;
20179;SDS011;10249;48.900;9.090;2023-05-27T02:48:26;11.40;;;11.00;;
20179;SDS011;10249;48.900;9.090;2023-05-27T02:50:54;11.10;;;10.70;;
20179;SDS011;10249;48.900;9.090;2023-05-27T02:53:21;11.00;;;10.60;;
20179;SDS011;10249;48.900;9.090;2023-05-27T02:55:49;11.07;;;10.67;;
20179;SDS011;10249;48.900;9.090;2023-05-27T02:58:16;11.30;;;10.90;;
20179;SDS011;10249;48.900;9.090;2023-05-27T03:00:43;10.93;;;10.53;;
20179;SDS011;10249;48.900;9.090;2023-05-27T03:03:10;10.80;;;10.40;;
20179;SDS011;10249;48.900;9.090;2023-05-27T03:05:37;11.33;;;10.93;;
20179;SDS011;10249;48.900;9.090;2023-05-27T03:08:06;10.80;;;10.40;;
20179;SDS011;10249;48.900;9.090;2023-05-27T03:10:33;10.80;;;10.40;;
20179;SDS011;10249;48.900;9.090;2023-05-27T03:13:00;10.87;;;10.47;;
20179;SDS011;10249;48.900;9.090;2023-05-27T03:15:28;10.80;;;10.40;;
20179;SDS011;10249;48.900;9.090;2023-05-27T03:17:56;10.80;;;10.40;;
20179;SDS011;10249;48.900;9.090;2023-05-27T03:20:24;10.80;;;10.40;;
20179;SDS011;10249;48.900;9.090;2023-05-27T03:22:51;10.67;;;10.27;;
20179;SDS011;10249;48.900;9.090;2023-05-27T03:25:20;10.70;;;10.30;;
20179;SDS011;10249;48.900;9.090;2023-05-27T03:27:47;10.40;;;10.10;;
20179;SDS011;10249;48.900;9.090;2023-05-27T03:30:14;10.60;;;10.20;;
20179;SDS011;10249;48.900;9.090;2023-05-27T03:32:41;10.20;;;9.90;;
20179;SDS011;10249;48.900;9.090;2023-05-27T03:35:08;10.80;;;10.40;;
20179;SDS011;10249;48.900;9.090;2023-05-27T03:37:35;10.20;;;9.90;;
20179;SDS011;10249;48.900;9.090;2023-05-27T03:40:03;10.70;;;10.30;;
20179;SDS011;10249;48.900;9.090;2023-05-27T03:42:33;10.90;;;10.50;;
20179;SDS011;10249;48.900;9.090;2023-05-27T03:45:00;10.60;;;10.20;;
20179;SDS011;10249;48.900;9.090;2023-05-27T03:47:28;10.77;;;10.37;;
20179;SDS011;10249;48.900;9.090;2023-05-27T03:49:55;10.70;;;10.30;;
20179;SDS011;10249;48.900;9.090;2023-05-27T03:52:22;10.77;;;10.37;;
20179;SDS011;10249;48.900;9.090;2023-05-27T03:54:49;11.00;;;10.60;;
20179;SDS011;10249;48.900;9.090;2023-05-27T03:57:17;11.00;;;10.60;;
20179;SDS011;10249;48.900;9.090;2023-05-27T03:59:45;10.90;;;10.50;;
20179;SDS011;10249;48.900;9.090;2023-05-27T04:02:12;10.80;;;10.40;;
20179;SDS011;10249;48.900;9.090;2023-05-27T04:04:40;11.00;;;10.60;;
20179;SDS011;10249;48.900;9.090;2023-05-27T04:07:07;10.83;;;10.43;;
20179;SDS011;10249;48.900;9.090;2023-05-27T04:09:34;10.40;;;10.10;;
20179;SDS011;10249;48.900;9.090;2023-05-27T04:12:01;10.53;;;10.20;;
20179;SDS011;10249;48.900;9.090;2023-05-27T04:14:28;10.93;;;10.53;;
20179;SDS011;10249;48.900;9.090;2023-05-27T04:16:57;10.67;;;10.27;;
20179;SDS011;10249;48.900;9.090;2023-05-27T04:19:24;11.00;;;10.60;;
20179;SDS011;10249;48.900;9.090;2023-05-27T04:21:51;10.53;;;10.13;;
20179;SDS011;10249;48.900;9.090;2023-05-27T04:24:18;10.70;;;10.30;;
20179;SDS011;10249;48.900;9.090;2023-05-27T04:26:45;10.70;;;10.30;;
20179;SDS011;10249;48.900;9.090;2023-05-27T04:29:12;10.60;;;10.20;;
20179;SDS011;10249;48.900;9.090;2023-05-27T04:31:40;10.87;;;10.47;;
20179;SDS011;10249;48.900;9.090;2023-05-27T04:34:09;10.50;;;10.20;;
20179;SDS011;10249;48.900;9.090;2023-05-27T04:36:36;10.80;;;10.40;;
20179;SDS011;10249;48.900;9.090;2023-05-27T04:39:03;10.60;;;10.20;;
20179;SDS011;10249;48.900;9.090;2023-05-27T04:41:30;11.03;;;10.63;;
20179;SDS011;10249;48.900;9.090;2023-05-27T04:43:57;10.77;;;10.37;;
20179;SDS011;10249;48.900;9.090;2023-05-27T04:46:25;10.80;;;10.40;;
20179;SDS011;10249;48.900;9.090;2023-05-27T04:48:52;11.00;;;10.60;;
20179;SDS011;10249;48.900;9.090;2023-05-27T04:51:22;11.13;;;10.73;;
20179;SDS011;10249;48.900;9.090;2023-05-27T04:53:49;11.30;;;10.90;;
20179;SDS011;10249;48.900;9.090;2023-05-27T04:56:16;11.63;;;11.23;;
20179;SDS011;10249;48.900;9.090;2023-05-27T04:58:43;11.30;;;10.90;;
20179;SDS011;10249;48.900;9.090;2023-05-27T05:01:13;11.40;;;11.00;;
20179;SDS011;10249;48.900;9.090;2023-05-27T05:03:43;11.27;;;10.87;;
20179;SDS011;10249;48.900;9.090;2023-05-27T05:06:18;11.30;;;10.90;;
20179;SDS011;10249;48.900;9.090;2023-05-27T05:08:47;11.27;;;10.87;;
20179;SDS011;10249;48.900;9.090;2023-05-27T05:11:14;11.50;;;11.10;;
20179;SDS011;10249;48.900;9.090;2023-05-27T05:13:42;11.60;;;11.20;;
20179;SDS011;10249;48.900;9.090;2023-05-27T05:16:09;12.00;;;11.60;;
20179;SDS011;10249;48.900;9.090;2023-05-27T05:18:36;11.90;;;11.50;;
20179;SDS011;10249;48.900;9.090;2023-05-27T05:21:03;12.00;;;11.60;;
20179;SDS011;10249;48.900;9.090;2023-05-27T05:23:30;12.00;;;11.60;;
20179;SDS011;10249;48.900;9.090;2023-05-27T05:25:59;11.70;;;11.30;;
20179;SDS011;10249;48.900;9.090;2023-05-27T05:28:31;11.90;;;11.50;;
20179;SDS011;10249;48.900;9.090;2023-05-27T05:30:58;11.60;;;11.20;;
20179;SDS011;10249;48.900;9.090;2023-05-27T05:33:26;11.80;;;11.40;;
20179;SDS011;10249;48.900;9.090;2023-05-27T05:35:54;12.03;;;11.63;;
20179;SDS011;10249;48.900;9.090;2023-05-27T05:38:21;11.97;;;11.57;;
20179;SDS011;10249;48.900;9.090;2023-05-27T05:40:48;12.10;;;11.70;;
20179;SDS011;10249;48.900;9.090;2023-05-27T05:43:18;12.27;;;11.87;;
20179;SDS011;10249;48.900;9.090;2023-05-27T05:45:46;12.17;;;11.77;;
20179;SDS011;10249;48.900;9.090;2023-05-27T05:48:13;12.10;;;11.70;;
20179;SDS011;10249;48.900;9.090;2023-05-27T05:50:40;12.43;;;12.03;;
20179;SDS011;10249;48.900;9.090;2023-05-27T05:53:07;12.43;;;11.97;;
20179;SDS011;10249;48.900;9.090;2023-05-27T05:55:35;12.63;;;12.13;;
20179;SDS011;10249;48.900;9.090;2023-05-27T05:58:02;12.90;;;12.40;;
20179;SDS011;10249;48.900;9.090;2023-05-27T06:00:30;12.57;;;12.07;;
20179;SDS011;10249;48.900;9.090;2023-05-27T06:02:58;12.60;;;12.10;;
20179;SDS011;10249;48.900;9.090;2023-05-27T06:05:25;12.37;;;11.97;;
20179;SDS011;10249;48.900;9.090;2023-05-27T06:07:52;12.40;;;12.00;;
20179;SDS011;10249;48.900;9.090;2023-05-27T06:10:19;12.40;;;12.00;;
20179;SDS011;10249;48.900;9.090;2023-05-27T06:12:46;12.90;;;12.40;;
20179;SDS011;10249;48.900;9.090;2023-05-27T06:15:13;13.20;;;12.70;;
20179;SDS011;10249;48.900;9.090;2023-05-27T06:17:43;13.07;;;12.57;;
20179;SDS011;10249;48.900;9.090;2023-05-27T06:20:12;13.00;;;12.50;;
20179;SDS011;10249;48.900;9.090;2023-05-27T06:22:39;13.30;;;12.80;;
20179;SDS011;10249;48.900;9.090;2023-05-27T06:25:06;13.47;;;12.97;;
20179;SDS011;10249;48.900;9.090;2023-05-27T06:27:33;13.10;;;12.60;;
20179;SDS011;10249;48.900;9.090;2023-05-27T06:30:00;13.43;;;12.93;;
20179;SDS011;10249;48.900;9.090;2023-05-27T06:32:27;13.40;;;12.90;;
20179;SDS011;10249;48.900;9.090;2023-05-27T06:34:56;13.63;;;13.13;;
20179;SDS011;10249;48.900;9.090;2023-05-27T06:37:23;13.47;;;12.97;;
20179;SDS011;10249;48.900;9.090;2023-05-27T06:39:50;13.20;;;12.70;;
20179;SDS011;10249;48.900;9.090;2023-05-27T06:42:17;13.67;;;13.17;;
20179;SDS011;10249;48.900;9.090;2023-05-27T06:44:44;13.70;;;13.20;;
20179;SDS011;10249;48.900;9.090;2023-05-27T06:47:11;13.67;;;13.17;;
20179;SDS011;10249;48.900;9.090;2023-05-27T06:49:38;13.97;;;13.47;;
20179;SDS011;10249;48.900;9.090;2023-05-27T06:52:07;14.00;;;13.50;;
20179;SDS011;10249;48.900;9.090;2023-05-27T06:54:34;13.90;;;13.40;;
20179;SDS011;10249;48.900;9.090;2023-05-27T06:57:01;13.80;;;13.30;;
20179;SDS011;10249;48.900;9.090;2023-05-27T06:59:28;13.80;;;13.30;;
20179;SDS011;10249;48.900;9.090;2023-05-27T07:01:55;13.90;;;13.40;;
20179;SDS011;10249;48.900;9.090;2023-05-27T07:04:23;14.13;;;13.53;;
20179;SDS011;10249;48.900;9.090;2023-05-27T07:06:51;13.70;;;13.20;;
20179;SDS011;10249;48.900;9.090;2023-05-27T07:09:19;14.00;;;13.40;;
20179;SDS011;10249;48.900;9.090;2023-05-27T07:11:46;14.10;;;13.50;;
20179;SDS011;10249;48.900;9.090;2023-05-27T07:14:13;14.10;;;13.50;;
20179;SDS011;10249;48.900;9.090;2023-05-27T07:16:40;14.20;;;13.60;;
20179;SDS011;10249;48.900;9.090;2023-05-27T07:19:08;14.30;;;13.70;;
20179;SDS011;10249;48.900;9.090;2023-05-27T07:21:35;13.60;;;13.10;;
20179;SDS011;10249;48.900;9.090;2023-05-27T07:24:02;13.80;;;13.27;;
20179;SDS011;10249;48.900;9.090;2023-05-27T07:26:31;13.57;;;13.07;;
20179;SDS011;10249;48.900;9.090;2023-05-27T07:28:58;13.80;;;13.20;;
20179;SDS011;10249;48.900;9.090;2023-05-27T07:31:26;13.97;;;13.37;;
20179;SDS011;10249;48.900;9.090;2023-05-27T07:33:53;13.90;;;13.30;;
20179;SDS011;10249;48.900;9.090;2023-05-27T07:36:20;14.20;;;13.60;;
20179;SDS011;10249;48.900;9.090;2023-05-27T07:38:47;13.90;;;13.30;;
20179;SDS011;10249;48.900;9.090;2023-05-27T07:41:14;14.07;;;13.47;;
20179;SDS011;10249;48.900;9.090;2023-05-27T07:43:43;14.00;;;13.40;;
20179;SDS011;10249;48.900;9.090;2023-05-27T07:46:10;13.73;;;13.23;;
20179;SDS011;10249;48.900;9.090;2023-05-27T07:48:37;14.10;;;13.50;;
20179;SDS011;10249;48.900;9.090;2023-05-27T07:51:04;14.13;;;13.53;;
20179;SDS011;10249;48.900;9.090;2023-05-27T07:53:31;13.90;;;13.30;;
20179;SDS011;10249;48.900;9.090;2023-05-27T07:55:59;14.00;;;13.40;;
20179;SDS011;10249;48.900;9.090;2023-05-27T07:58:26;14.53;;;13.93;;
20179;SDS011;10249;48.900;9.090;2023-05-27T08:00:54;14.67;;;14.07;;
20179;SDS011;10249;48.900;9.090;2023-05-27T08:03:21;15.00;;;14.30;;
20179;SDS011;10249;48.900;9.090;2023-05-27T08:05:48;14.80;;;14.20;;
20179;SDS011;10249;48.900;9.090;2023-05-27T08:08:16;15.13;;;14.43;;
20179;SDS011;10249;48.900;9.090;2023-05-27T08:10:43;15.27;;;14.57;;
20179;SDS011;10249;48.900;9.090;2023-05-27T08:13:11;15.20;;;14.50;;
20179;SDS011;10249;48.900;9.090;2023-05-27T08:15:38;15.30;;;14.60;;
20179;SDS011;10249;48.900;9.090;2023-05-27T08:18:07;15.30;;;14.60;;
20179;SDS011;10249;48.900;9.090;2023-05-27T08:20:34;15.43;;;14.73;;
20179;SDS011;10249;48.900;9.090;2023-05-27T08:23:01;15.47;;;14.77;;
20179;SDS011;10249;48.900;9.090;2023-05-27T08:25:28;15.40;;;14.70;;
20179;SDS011;10249;48.900;9.090;2023-05-27T08:27:56;15.23;;;14.53;;
20179;SDS011;10249;48.900;9.090;2023-05-27T08:30:26;15.40;;;14.70;;
20179;SDS011;10249;48.900;9.090;2023-05-27T08:32:54;15.20;;;14.50;;
20179;SDS011;10249;48.900;9.090;2023-05-27T08:35:22;15.37;;;14.67;;
20179;SDS011;10249;48.900;9.090;2023-05-27T08:37:49;15.40;;;14.70;;
20179;SDS011;10249;48.900;9.090;2023-05-27T08:40:17;15.33;;;14.63;;
20179;SDS011;10249;48.900;9.090;2023-05-27T08:42:45;15.20;;;14.50;;
20179;SDS011;10249;48.900;9.090;2023-05-27T08:45:12;15.10;;;14.40;;
20179;SDS011;10249;48.900;9.090;2023-05-27T08:47:39;15.37;;;14.67;;
20179;SDS011;10249;48.900;9.090;2023-05-27T08:50:07;14.90;;;14.20;;
20179;SDS011;10249;48.900;9.090;2023-05-27T08:52:36;15.30;;;14.60;;
20179;SDS011;10249;48.900;9.090;2023-05-27T08:55:05;15.50;;;14.80;;
20179;SDS011;10249;48.900;9.090;2023-05-27T08:57:32;15.20;;;14.50;;
20179;SDS011;10249;48.900;9.090;2023-05-27T09:00:00;15.00;;;14.30;;
20179;SDS011;10249;48.900;9.090;2023-05-27T09:02:36;15.20;;;14.50;;
20179;SDS011;10249;48.900;9.090;2023-05-27T09:05:03;14.93;;;14.23;;
20179;SDS011;10249;48.900;9.090;2023-05-27T09:07:31;14.90;;;14.20;;
20179;SDS011;10249;48.900;9.090;2023-05-27T09:09:59;15.03;;;14.33;;
20179;SDS011;10249;48.900;9.090;2023-05-27T09:12:27;14.87;;;14.17;;
20179;SDS011;10249;48.900;9.090;2023-05-27T09:14:54;14.83;;;14.13;;
20179;SDS011;10249;48.900;9.090;2023-05-27T09:17:22;15.23;;;14.53;;
20179;SDS011;10249;48.900;9.090;2023-05-27T09:19:49;14.93;;;14.23;;
20179;SDS011;10249;48.900;9.090;2023-05-27T09:22:20;14.97;;;14.27;;
20179;SDS011;10249;48.900;9.090;2023-05-27T09:24:47;14.67;;;13.97;;
20179;SDS011;10249;48.900;9.090;2023-05-27T09:27:16;14.97;;;14.27;;
20179;SDS011;10249;48.900;9.090;2023-05-27T09:29:43;15.07;;;14.37;;
20179;SDS011;10249;48.900;9.090;2023-05-27T09:32:10;15.10;;;14.40;;
20179;SDS011;10249;48.900;9.090;2023-05-27T09:34:37;15.10;;;14.40;;
20179;SDS011;10249;48.900;9.090;2023-05-27T09:37:04;15.20;;;14.50;;
20179;SDS011;10249;48.900;9.090;2023-05-27T09:39:32;15.20;;;14.50;;
20179;SDS011;10249;48.900;9.090;2023-05-27T09:42:01;15.00;;;14.30;;
20179;SDS011;10249;48.900;9.090;2023-05-27T09:44:30;15.07;;;14.37;;
20179;SDS011;10249;48.900;9.090;2023-05-27T09:46:57;15.00;;;14.30;;
20179;SDS011;10249;48.900;9.090;2023-05-27T09:49:24;15.10;;;14.40;;
20179;SDS011;10249;48.900;9.090;2023-05-27T09:51:53;15.20;;;14.50;;
20179;SDS011;10249;48.900;9.090;2023-05-27T09:54:22;15.43;;;14.73;;
20179;SDS011;10249;48.900;9.090;2023-05-27T09:56:50;15.77;;;15.07;;
20179;SDS011;10249;48.900;9.090;2023-05-27T09:59:17;15.90;;;15.20;;
20179;SDS011;10249;48.900;9.090;2023-05-27T10:01:46;16.00;;;15.23;;
20179;SDS011;10249;48.900;9.090;2023-05-27T10:04:13;16.00;;;15.20;;
20179;SDS011;10249;48.900;9.090;2023-05-27T10:06:41;16.10;;;15.30;;
20179;SDS011;10249;48.900;9.090;2023-05-27T10:09:08;15.80;;;15.10;;
20179;SDS011;10249;48.900;9.090;2023-05-27T10:11:37;15.90;;;15.20;;
20179;SDS011;10249;48.900;9.090;2023-05-27T10:14:06;16.10;;;15.30;;
20179;SDS011;10249;48.900;9.090;2023-05-27T10:16:35;15.47;;;14.77;;
20179;SDS011;10249;48.900;9.090;2023-05-27T10:19:09;16.00;;;15.20;;
20179;SDS011;10249;48.900;9.090;2023-05-27T10:21:41;16.30;;;15.50;;
20179;SDS011;10249;48.900;9.090;2023-05-27T10:24:09;15.90;;;15.10;;
20179;SDS011;10249;48.900;9.090;2023-05-27T10:26:38;15.93;;;15.17;;
20179;SDS011;10249;48.900;9.090;2023-05-27T10:29:06;16.10;;;15.33;;
20179;SDS011;10249;48.900;9.090;2023-05-27T10:31:33;16.17;;;15.47;;
20179;SDS011;10249;48.900;9.090;2023-05-27T10:34:03;15.90;;;15.20;;
20179;SDS011;10249;48.900;9.090;2023-05-27T10:36:32;16.13;;;15.40;;
20179;SDS011;10249;48.900;9.090;2023-05-27T10:39:03;15.80;;;15.10;;
20179;SDS011;10249;48.900;9.090;2023-05-27T10:41:38;16.20;;;15.40;;
20179;SDS011;10249;48.900;9.090;2023-05-27T10:44:05;15.93;;;15.23;;
20179;SDS011;10249;48.900;9.090;2023-05-27T10:46:37;15.50;;;14.80;;
20179;SDS011;10249;48.900;9.090;2023-05-27T10:49:09;15.53;;;14.83;;
20179;SDS011;10249;48.900;9.090;2023-05-27T10:51:37;15.30;;;14.60;;
20179;SDS011;10249;48.900;9.090;2023-05-27T10:54:05;15.70;;;15.00;;
20179;SDS011;10249;48.900;9.090;2023-05-27T10:56:32;15.40;;;14.70;;
20179;SDS011;10249;48.900;9.090;2023-05-27T10:59:00;15.47;;;14.77;;
20179;SDS011;10249;48.900;9.090;2023-05-27T11:01:28;15.33;;;14.63;;
20179;SDS011;10249;48.900;9.090;2023-05-27T11:03:57;14.80;;;14.10;;
20179;SDS011;10249;48.900;9.090;2023-05-27T11:06:24;15.70;;;14.97;;
20179;SDS011;10249;48.900;9.090;2023-05-27T11:08:52;15.30;;;14.60;;
20179;SDS011;10249;48.900;9.090;2023-05-27T11:11:20;15.30;;;14.60;;
20179;SDS011;10249;48.900;9.090;2023-05-27T11:13:47;15.80;;;15.10;;
20179;SDS011;10249;48.900;9.090;2023-05-27T11:16:15;15.38;;;14.68;;
20179;SDS011;10249;48.900;9.090;2023-05-27T11:18:43;15.20;;;14.50;;
20179;SDS011;10249;48.900;9.090;2023-05-27T11:21:11;47.42;;;45.63;;
20179;SDS011;10249;48.900;9.090;2023-05-27T11:23:41;45.72;;;44.00;;
20179;SDS011;10249;48.900;9.090;2023-05-27T11:26:17;46.88;;;45.08;;
20179;SDS011;10249;48.900;9.090;2023-05-27T11:28:45;44.85;;;43.15;;
20179;SDS011;10249;48.900;9.090;2023-05-27T11:31:12;46.25;;;44.55;;
20179;SDS011;10249;48.900;9.090;2023-05-27T11:33:40;46.53;;;44.83;;
20179;SDS011;10249;48.900;9.090;2023-05-27T11:36:10;46.70;;;44.97;;
20179;SDS011;10249;48.900;9.090;2023-05-27T11:38:48;47.35;;;45.55;;
20179;SDS011;10249;48.900;9.090;2023-05-27T11:41:17;45.50;;;43.80;;
20179;SDS011;10249;48.900;9.090;2023-05-27T11:43:47;46.80;;;45.10;;
20179;SDS011;10249;48.900;9.090;2023-05-27T11:46:14;45.72;;;44.03;;
20179;SDS011;10249;48.900;9.090;2023-05-27T11:48:41;47.90;;;46.10;;
20179;SDS011;10249;48.900;9.090;2023-05-27T11:51:09;48.40;;;46.60;;
20179;SDS011;10249;48.900;9.090;2023-05-27T11:53:38;47.55;;;45.75;;
20179;SDS011;10249;48.900;9.090;2023-05-27T11:56:06;46.30;;;44.60;;
20179;SDS011;10249;48.900;9.090;2023-05-27T11:58:34;47.75;;;45.95;;
20179;SDS011;10249;48.900;9.090;2023-05-27T12:01:02;47.97;;;46.17;;
20179;SDS011;10249;48.900;9.090;2023-05-27T12:03:30;46.90;;;45.10;;
20179;SDS011;10249;48.900;9.090;2023-05-27T12:05:57;45.35;;;43.65;;
20179;SDS011;10249;48.900;9.090;2023-05-27T12:08:24;45.78;;;44.08;;
20179;SDS011;10249;48.900;9.090;2023-05-27T12:10:51;45.90;;;44.20;;
20179;SDS011;10249;48.900;9.090;2023-05-27T12:13:19;45.15;;;43.45;;
20179;SDS011;10249;48.900;9.090;2023-05-27T12:15:48;46.15;;;44.35;;
20179;SDS011;10249;48.900;9.090;2023-05-27T12:18:15;46.35;;;44.55;;
20179;SDS011;10249;48.900;9.090;2023-05-27T12:20:43;46.03;;;44.33;;
20179;SDS011;10249;48.900;9.090;2023-05-27T12:23:10;47.13;;;45.33;;
20179;SDS011;10249;48.900;9.090;2023-05-27T12:25:37;46.08;;;44.33;;
20179;SDS011;10249;48.900;9.090;2023-05-27T12:28:06;48.38;;;46.58;;
20179;SDS011;10249;48.900;9.090;2023-05-27T12:30:33;46.58;;;44.80;;
20179;SDS011;10249;48.900;9.090;2023-05-27T12:33:02;47.00;;;45.20;;
20179;SDS011;10249;48.900;9.090;2023-05-27T12:35:29;47.33;;;45.53;;
20179;SDS011;10249;48.900;9.090;2023-05-27T12:37:56;46.13;;;44.40;;
20179;SDS011;10249;48.900;9.090;2023-05-27T12:40:24;45.25;;;43.55;;
20179;SDS011;10249;48.900;9.090;2023-05-27T12:42:51;45.60;;;43.90;;
20179;SDS011;10249;48.900;9.090;2023-05-27T12:45:18;46.15;;;44.45;;
20179;SDS011;10249;48.900;9.090;2023-05-27T12:47:47;45.47;;;43.78;;
20179;SDS011;10249;48.900;9.090;2023-05-27T12:50:15;45.08;;;43.38;;
20179;SDS011;10249;48.900;9.090;2023-05-27T12:52:42;45.28;;;43.58;;
20179;SDS011;10249;48.900;9.090;2023-05-27T12:55:11;45.03;;;43.33;;
20179;SDS011;10249;48.900;9.090;2023-05-27T12:57:38;44.97;;;43.28;;
20179;SDS011;10249;48.900;9.090;2023-05-27T13:00:06;44.90;;;43.20;;
20179;SDS011;10249;48.900;9.090;2023-05-27T13:02:34;45.00;;;43.30;;
20179;SDS011;10249;48.900;9.090;2023-05-27T13:05:02;45.90;;;44.10;;
20179;SDS011;10249;48.900;9.090;2023-05-27T13:07:30;44.88;;;43.08;;
20179;SDS011;10249;48.900;9.090;2023-05-27T13:10:00;45.15;;;43.45;;
20179;SDS011;10249;48.900;9.090;2023-05-27T13:12:27;47.20;;;45.40;;
20179;SDS011;10249;48.900;9.090;2023-05-27T13:14:55;45.45;;;43.75;;
20179;SDS011;10249;48.900;9.090;2023-05-27T13:17:22;47.00;;;45.20;;
20179;SDS011;10249;48.900;9.090;2023-05-27T13:19:49;45.22;;;43.53;;
20179;SDS011;10249;48.900;9.090;2023-05-27T13:22:16;43.05;;;41.42;;
20179;SDS011;10249;48.900;9.090;2023-05-27T13:24:45;43.53;;;41.83;;
20179;SDS011;10249;48.900;9.090;2023-05-27T13:27:12;42.45;;;40.85;;
20179;SDS011;10249;48.900;9.090;2023-05-27T13:29:39;45.03;;;43.33;;
20179;SDS011;10249;48.900;9.090;2023-05-27T13:32:07;45.88;;;44.17;;
20179;SDS011;10249;48.900;9.090;2023-05-27T13:34:34;44.65;;;42.95;;
20179;SDS011;10249;48.900;9.090;2023-05-27T13:37:01;43.72;;;42.03;;
20179;SDS011;10249;48.900;9.090;2023-05-27T13:39:28;44.88;;;43.17;;
20179;SDS011;10249;48.900;9.090;2023-05-27T13:41:57;43.70;;;42.08;;
20179;SDS011;10249;48.900;9.090;2023-05-27T13:44:24;44.53;;;42.83;;
20179;SDS011;10249;48.900;9.090;2023-05-27T13:46:51;44.03;;;42.40;;
20179;SDS011;10249;48.900;9.090;2023-05-27T13:49:18;42.75;;;41.15;;
20179;SDS011;10249;48.900;9.090;2023-05-27T13:51:46;43.25;;;41.63;;
20179;SDS011;10249;48.900;9.090;2023-05-27T13:54:13;45.13;;;43.42;;
20179;SDS011;10249;48.900;9.090;2023-05-27T13:56:40;41.72;;;40.13;;
20179;SDS011;10249;48.900;9.090;2023-05-27T13:59:09;14.90;;;14.20;;
20179;SDS011;10249;48.900;9.090;2023-05-27T14:01:37;15.63;;;14.93;;
20179;SDS011;10249;48.900;9.090;2023-05-27T14:04:05;15.68;;;14.98;;
20179;SDS011;10249;48.900;9.090;2023-05-27T14:06:32;14.90;;;14.20;;
20179;SDS011;10249;48.900;9.090;2023-05-27T14:09:00;15.00;;;14.30;;
20179;SDS011;10249;48.900;9.090;2023-05-27T14:11:27;14.90;;;14.20;;
20179;SDS011;10249;48.900;9.090;2023-05-27T14:13:55;14.43;;;13.82;;
20179;SDS011;10249;48.900;9.090;2023-05-27T14:16:23;14.77;;;14.07;;
20179;SDS011;10249;48.900;9.090;2023-05-27T14:18:50;14.82;;;14.13;;
20179;SDS011;10249;48.900;9.090;2023-05-27T14:21:17;14.85;;;14.15;;
20179;SDS011;10249;48.900;9.090;2023-05-27T14:23:44;14.60;;;14.00;;